Time;durP1;ratioP1;P1;durP2;ratioP2;P2;SDS_P1;SDS_P2;PMS_P1;PMS_P2;Temp;Humidity;BMP_temperature;BMP_pressure;BME280_temperature;BME280_humidity;BME280_pressure;Samples;Min_cycle;Max_cycle;Signal;HPM_P1;HPM_P2
2021/03/15 00:01:35;;;;;;;46.63;41.78;;;;;;;;;;5078901;28;20190;-75
2021/03/15 00:04:02;;;;;;;44.85;41.15;;;;;;;;;;5086179;28;20193;-75
2021/03/15 00:06:35;;;;;;;46.55;42.65;;;;;;;;;;5087289;28;20189;-76
2021/03/15 00:09:15;;;;;;;45.58;41.60;;;;;;;;;;5087856;28;20185;-75
2021/03/15 00:11:42;;;;;;;42.45;38.80;;;;;;;;;;5066143;28;20202;-75
2021/03/15 00:14:09;;;;;;;40.92;37.53;;;;;;;;;;5081982;28;20238;-75
2021/03/15 00:16:36;;;;;;;37.13;34.42;;;;;;;;;;5082242;28;20586;-75
2021/03/15 00:19:03;;;;;;;39.90;36.80;;;;;;;;;;5080474;28;20189;-75
2021/03/15 00:21:31;;;;;;;39.15;36.35;;;;;;;;;;5080324;28;20215;-75
2021/03/15 00:23:58;;;;;;;41.53;38.40;;;;;;;;;;5064727;28;20203;-75
2021/03/15 00:26:25;;;;;;;37.55;35.05;;;;;;;;;;5081992;28;20200;-75
2021/03/15 00:28:52;;;;;;;37.35;35.05;;;;;;;;;;5080854;28;20198;-75
2021/03/15 00:31:19;;;;;;;32.90;30.90;;;;;;;;;;5079164;28;20261;-75
2021/03/15 00:33:48;;;;;;;35.97;33.65;;;;;;;;;;5060542;28;20191;-75
2021/03/15 00:36:18;;;;;;;36.45;33.80;;;;;;;;;;5060803;28;20553;-75
2021/03/15 00:38:45;;;;;;;38.20;35.55;;;;;;;;;;5077871;28;20274;-76
2021/03/15 00:41:12;;;;;;;35.83;33.40;;;;;;;;;;5078151;28;20188;-75
2021/03/15 00:43:40;;;;;;;37.88;35.17;;;;;;;;;;5080590;28;20549;-75
2021/03/15 00:46:11;;;;;;;36.95;34.45;;;;;;;;;;5078252;28;20216;-75
2021/03/15 00:48:38;;;;;;;33.78;31.38;;;;;;;;;;5078984;28;20209;-75
2021/03/15 00:51:07;;;;;;;35.80;33.40;;;;;;;;;;5080075;28;20638;-75
2021/03/15 00:53:34;;;;;;;37.25;34.85;;;;;;;;;;5080119;28;20200;-75
2021/03/15 00:56:01;;;;;;;36.85;34.13;;;;;;;;;;5078367;28;20241;-75
2021/03/15 00:58:30;;;;;;;37.08;34.67;;;;;;;;;;5059553;28;20201;-76
2021/03/15 01:00:59;;;;;;;37.78;35.17;;;;;;;;;;5078780;28;20355;-75
2021/03/15 01:03:26;;;;;;;38.40;35.45;;;;;;;;;;5078099;28;20205;-76
2021/03/15 01:05:53;;;;;;;38.65;35.30;;;;;;;;;;5078240;28;20188;-75
2021/03/15 01:08:20;;;;;;;39.75;36.80;;;;;;;;;;5079771;28;20603;-75
2021/03/15 01:10:50;;;;;;;39.67;36.78;;;;;;;;;;5079317;28;20189;-75
2021/03/15 01:13:17;;;;;;;39.70;36.42;;;;;;;;;;5062129;28;20206;-75
2021/03/15 01:15:45;;;;;;;38.30;35.60;;;;;;;;;;5080171;28;20247;-75
2021/03/15 01:18:13;;;;;;;41.10;37.65;;;;;;;;;;5077510;28;20189;-76
2021/03/15 01:20:40;;;;;;;43.03;39.53;;;;;;;;;;5076181;28;20185;-75
2021/03/15 01:23:07;;;;;;;44.67;40.97;;;;;;;;;;5076155;28;20212;-76
2021/03/15 01:25:35;;;;;;;46.80;42.58;;;;;;;;;;5075696;28;20189;-75
2021/03/15 01:28:02;;;;;;;45.13;41.25;;;;;;;;;;5074884;28;20283;-75
2021/03/15 01:30:30;;;;;;;44.35;40.75;;;;;;;;;;5074905;28;20189;-75
2021/03/15 01:32:58;;;;;;;47.38;42.67;;;;;;;;;;5054696;28;20432;-75
2021/03/15 01:35:27;;;;;;;48.63;44.50;;;;;;;;;;5054623;28;20633;-76
2021/03/15 01:37:54;;;;;;;45.25;41.40;;;;;;;;;;5054777;28;20222;-75
2021/03/15 01:40:21;;;;;;;49.72;44.33;;;;;;;;;;5055445;28;20189;-75
2021/03/15 01:42:48;;;;;;;47.75;43.15;;;;;;;;;;5054732;28;20193;-75
2021/03/15 01:45:15;;;;;;;47.65;43.17;;;;;;;;;;5055072;28;20200;-76
2021/03/15 01:47:43;;;;;;;49.30;44.10;;;;;;;;;;5054446;28;20194;-76
2021/03/15 01:50:11;;;;;;;46.20;42.05;;;;;;;;;;5036596;28;20212;-75
2021/03/15 01:52:39;;;;;;;48.25;43.10;;;;;;;;;;5054591;28;20190;-76
2021/03/15 01:57:53;;;;;;;48.70;44.45;;;;;;;;;;5055044;28;20194;-75
2021/03/15 02:00:21;;;;;;;48.20;43.40;;;;;;;;;;5061467;28;20186;-75
2021/03/15 02:02:52;;;;;;;44.03;39.63;;;;;;;;;;5063047;28;20228;-75
2021/03/15 02:05:22;;;;;;;45.40;41.70;;;;;;;;;;5058686;28;20253;-75
2021/03/15 02:07:51;;;;;;;49.90;45.53;;;;;;;;;;5057043;28;20274;-75
2021/03/15 02:10:18;;;;;;;47.42;43.47;;;;;;;;;;5056476;28;20203;-75
2021/03/15 02:12:58;;;;;;;46.33;42.53;;;;;;;;;;5055870;28;20204;-75
2021/03/15 02:15:38;;;;;;;47.83;43.20;;;;;;;;;;5055999;28;20595;-75
2021/03/15 02:18:07;;;;;;;48.83;44.72;;;;;;;;;;5057387;28;20199;-75
2021/03/15 02:20:39;;;;;;;41.10;38.15;;;;;;;;;;5057527;28;20204;-75
2021/03/15 02:23:09;;;;;;;47.03;43.08;;;;;;;;;;5055850;28;20197;-75
2021/03/15 02:26:04;;;;;;;54.35;49.25;;;;;;;;;;5056774;28;20554;-75
2021/03/15 02:28:44;;;;;;;50.03;45.72;;;;;;;;;;5056821;28;20193;-74
2021/03/15 02:31:29;;;;;;;49.58;45.22;;;;;;;;;;5060505;28;20200;-75
2021/03/15 02:34:03;;;;;;;52.72;48.17;;;;;;;;;;5060127;28;20226;-74
2021/03/15 02:36:33;;;;;;;50.30;45.85;;;;;;;;;;5058401;28;20306;-76
2021/03/15 02:39:03;;;;;;;47.00;42.95;;;;;;;;;;5055467;28;20224;-74
2021/03/15 02:41:30;;;;;;;49.00;44.65;;;;;;;;;;5054900;28;20211;-74
2021/03/15 02:43:59;;;;;;;49.88;45.78;;;;;;;;;;5055064;28;20201;-75
2021/03/15 02:46:29;;;;;;;41.85;38.95;;;;;;;;;;5055121;28;20192;-75
2021/03/15 02:48:58;;;;;;;46.42;42.53;;;;;;;;;;5056685;28;20212;-75
2021/03/15 02:51:26;;;;;;;46.30;42.95;;;;;;;;;;5055009;28;20660;-75
2021/03/15 02:53:56;;;;;;;39.05;36.60;;;;;;;;;;5054580;28;20190;-75
2021/03/15 02:56:24;;;;;;;46.40;42.95;;;;;;;;;;5055006;28;20223;-75
2021/03/15 02:58:53;;;;;;;44.25;41.05;;;;;;;;;;5054795;28;20189;-75
2021/03/15 03:01:21;;;;;;;46.17;42.80;;;;;;;;;;5054566;28;20688;-75
2021/03/15 03:03:51;;;;;;;50.13;46.55;;;;;;;;;;5055688;28;20247;-75
2021/03/15 03:06:20;;;;;;;48.83;45.20;;;;;;;;;;5055448;28;20272;-75
2021/03/15 03:08:51;;;;;;;49.80;46.10;;;;;;;;;;5056768;28;20360;-75
2021/03/15 03:11:20;;;;;;;51.53;47.03;;;;;;;;;;5059587;28;20606;-75
2021/03/15 03:13:47;;;;;;;49.40;45.30;;;;;;;;;;5060996;28;20837;-75
2021/03/15 03:16:14;;;;;;;47.05;43.55;;;;;;;;;;5059687;28;20220;-75
2021/03/15 03:18:42;;;;;;;44.58;41.15;;;;;;;;;;5059676;28;20190;-76
2021/03/15 03:21:09;;;;;;;47.80;44.22;;;;;;;;;;5058973;28;20187;-75
2021/03/15 03:23:38;;;;;;;42.30;39.20;;;;;;;;;;5058501;28;20189;-75
2021/03/15 03:26:05;;;;;;;41.63;39.00;;;;;;;;;;5058130;28;20189;-75
2021/03/15 03:28:34;;;;;;;45.08;41.63;;;;;;;;;;5058395;28;20186;-75
2021/03/15 03:31:03;;;;;;;42.90;39.50;;;;;;;;;;5057213;28;20193;-75
2021/03/15 03:33:31;;;;;;;43.97;40.83;;;;;;;;;;5056813;28;20190;-75
2021/03/15 03:35:58;;;;;;;41.45;38.75;;;;;;;;;;5056964;28;20554;-75
2021/03/15 03:38:25;;;;;;;46.75;43.45;;;;;;;;;;5057385;28;20217;-75
2021/03/15 03:40:52;;;;;;;47.15;43.83;;;;;;;;;;5056984;28;20193;-76
2021/03/15 03:43:19;;;;;;;43.63;40.28;;;;;;;;;;5057002;28;20247;-75
2021/03/15 03:45:50;;;;;;;44.05;41.15;;;;;;;;;;5056801;28;20190;-75
2021/03/15 03:48:17;;;;;;;46.13;43.03;;;;;;;;;;5057042;28;20218;-75
2021/03/15 03:50:44;;;;;;;44.28;41.13;;;;;;;;;;5056428;28;20211;-74
2021/03/15 03:53:14;;;;;;;42.60;39.70;;;;;;;;;;5057034;28;20194;-76
2021/03/15 03:55:43;;;;;;;44.38;40.88;;;;;;;;;;5056908;28;20222;-75
2021/03/15 03:58:13;;;;;;;42.42;39.28;;;;;;;;;;5056470;28;20197;-75
2021/03/15 04:00:40;;;;;;;42.80;39.70;;;;;;;;;;5039255;28;20198;-75
2021/03/15 04:03:14;;;;;;;44.85;41.70;;;;;;;;;;5056179;28;20246;-76
2021/03/15 04:05:43;;;;;;;44.63;41.13;;;;;;;;;;5056798;28;20324;-75
2021/03/15 04:08:12;;;;;;;43.75;40.70;;;;;;;;;;5056370;28;20253;-75
2021/03/15 04:10:39;;;;;;;44.08;40.45;;;;;;;;;;5065293;28;20189;-75
2021/03/15 04:13:08;;;;;;;43.28;39.70;;;;;;;;;;5049125;28;20640;-75
2021/03/15 04:15:42;;;;;;;46.60;43.30;;;;;;;;;;5063044;28;20217;-75
2021/03/15 04:18:13;;;;;;;43.28;40.05;;;;;;;;;;5063380;28;20193;-75
2021/03/15 04:20:43;;;;;;;44.00;40.70;;;;;;;;;;5061595;28;20189;-75
2021/03/15 04:23:15;;;;;;;45.35;41.97;;;;;;;;;;5064149;28;20213;-75
2021/03/15 04:25:44;;;;;;;44.17;40.72;;;;;;;;;;5063534;28;20222;-76
2021/03/15 04:28:12;;;;;;;44.92;41.63;;;;;;;;;;5060271;28;20196;-76
2021/03/15 04:30:42;;;;;;;40.13;37.22;;;;;;;;;;5063837;28;20213;-76
2021/03/15 04:33:12;;;;;;;43.45;40.35;;;;;;;;;;5062874;28;20189;-76
2021/03/15 04:35:46;;;;;;;41.28;38.38;;;;;;;;;;5062752;28;20594;-76
2021/03/15 04:38:13;;;;;;;40.97;38.28;;;;;;;;;;5062252;28;20689;-75
2021/03/15 04:40:41;;;;;;;44.00;40.67;;;;;;;;;;5061399;28;20189;-76
2021/03/15 04:43:09;;;;;;;44.67;41.35;;;;;;;;;;5057903;28;20208;-76
2021/03/15 04:45:42;;;;;;;43.90;40.45;;;;;;;;;;5056967;28;20200;-76
2021/03/15 04:48:12;;;;;;;46.00;42.30;;;;;;;;;;5056558;28;20186;-76
2021/03/15 04:50:39;;;;;;;44.00;40.88;;;;;;;;;;5057292;28;20512;-76
2021/03/15 04:53:07;;;;;;;46.00;42.20;;;;;;;;;;5057566;28;20556;-76
2021/03/15 04:55:35;;;;;;;42.70;39.20;;;;;;;;;;5058082;28;20213;-75
2021/03/15 04:58:04;;;;;;;42.70;39.45;;;;;;;;;;5057973;28;20189;-76
2021/03/15 05:00:31;;;;;;;41.08;38.25;;;;;;;;;;5056591;28;20188;-76
2021/03/15 05:02:58;;;;;;;42.15;38.83;;;;;;;;;;5055959;28;20197;-76
2021/03/15 05:05:27;;;;;;;43.13;39.83;;;;;;;;;;5055304;28;20201;-76
2021/03/15 05:07:56;;;;;;;46.22;42.42;;;;;;;;;;5055738;28;20646;-76
2021/03/15 05:10:23;;;;;;;43.53;39.63;;;;;;;;;;5055505;28;20189;-76
2021/03/15 05:12:50;;;;;;;39.95;36.75;;;;;;;;;;5055552;28;20185;-76
2021/03/15 05:15:17;;;;;;;45.92;41.95;;;;;;;;;;5055011;28;20271;-75
2021/03/15 05:17:44;;;;;;;46.08;42.22;;;;;;;;;;5055107;28;20188;-76
2021/03/15 05:20:12;;;;;;;41.83;38.47;;;;;;;;;;5054907;28;20283;-76
2021/03/15 05:22:42;;;;;;;44.50;40.60;;;;;;;;;;5054905;28;20710;-76
2021/03/15 05:25:10;;;;;;;47.55;43.65;;;;;;;;;;5037646;28;20265;-76
2021/03/15 05:27:37;;;;;;;44.28;40.58;;;;;;;;;;5055241;28;20197;-75
2021/03/15 05:30:07;;;;;;;44.92;40.75;;;;;;;;;;5055094;28;20636;-76
2021/03/15 05:32:35;;;;;;;44.60;41.05;;;;;;;;;;5055405;28;20197;-75
2021/03/15 05:35:03;;;;;;;39.60;36.65;;;;;;;;;;5038272;28;20210;-76
2021/03/15 05:37:30;;;;;;;39.75;36.58;;;;;;;;;;5054919;28;20221;-75
2021/03/15 05:39:59;;;;;;;41.85;37.75;;;;;;;;;;5055010;28;20186;-75
2021/03/15 05:42:32;;;;;;;39.85;36.38;;;;;;;;;;5054389;28;20202;-75
2021/03/15 05:45:07;;;;;;;36.67;33.97;;;;;;;;;;5054463;28;20550;-74
2021/03/15 05:47:41;;;;;;;40.80;37.55;;;;;;;;;;5055211;28;20184;-75
2021/03/15 05:50:31;;;;;;;38.47;35.67;;;;;;;;;;5054519;28;20188;-75
2021/03/15 05:53:14;;;;;;;41.63;38.40;;;;;;;;;;5054739;28;20207;-75
2021/03/15 05:55:50;;;;;;;42.85;39.33;;;;;;;;;;5054044;28;20670;-74
2021/03/15 05:58:36;;;;;;;43.05;39.60;;;;;;;;;;5054323;28;20200;-75
2021/03/15 06:01:20;;;;;;;40.80;37.25;;;;;;;;;;5053677;28;20189;-75
2021/03/15 06:04:19;;;;;;;39.97;36.72;;;;;;;;;;5013695;28;20223;-74
2021/03/15 06:06:48;;;;;;;41.25;38.05;;;;;;;;;;5054750;28;20208;-75
2021/03/15 06:09:19;;;;;;;38.70;35.70;;;;;;;;;;5055106;28;20225;-74
2021/03/15 06:11:51;;;;;;;40.47;37.20;;;;;;;;;;5055291;28;20217;-73
2021/03/15 06:14:18;;;;;;;41.30;38.30;;;;;;;;;;5054778;28;20267;-74
2021/03/15 06:16:45;;;;;;;41.92;38.78;;;;;;;;;;5054307;28;20224;-74
2021/03/15 06:19:13;;;;;;;39.83;36.58;;;;;;;;;;5054087;28;20252;-74
2021/03/15 06:21:41;;;;;;;42.85;39.22;;;;;;;;;;5053396;28;20659;-74
2021/03/15 06:24:08;;;;;;;41.65;38.53;;;;;;;;;;5053914;28;20194;-74
2021/03/15 06:26:35;;;;;;;39.53;36.63;;;;;;;;;;5054598;28;20205;-73
2021/03/15 06:29:04;;;;;;;39.25;36.03;;;;;;;;;;5054356;28;20189;-74
2021/03/15 06:31:33;;;;;;;39.65;36.60;;;;;;;;;;5038588;28;20193;-73
2021/03/15 06:34:00;;;;;;;43.25;40.15;;;;;;;;;;5054950;28;20208;-74
2021/03/15 06:36:29;;;;;;;40.58;37.63;;;;;;;;;;5053839;28;20221;-74
2021/03/15 06:38:56;;;;;;;42.67;39.72;;;;;;;;;;5053310;28;20217;-75
2021/03/15 06:41:24;;;;;;;37.08;34.45;;;;;;;;;;5054356;28;20642;-74
2021/03/15 06:43:51;;;;;;;38.15;35.15;;;;;;;;;;5054288;28;20190;-75
2021/03/15 06:46:20;;;;;;;37.97;35.17;;;;;;;;;;5057505;28;20276;-74
2021/03/15 06:48:47;;;;;;;36.70;33.92;;;;;;;;;;5057391;28;20189;-74
2021/03/15 06:51:14;;;;;;;38.10;35.10;;;;;;;;;;5057410;28;20643;-74
2021/03/15 06:53:42;;;;;;;38.05;35.28;;;;;;;;;;5057124;28;20202;-74
2021/03/15 06:56:12;;;;;;;45.58;42.30;;;;;;;;;;5057000;28;20578;-74
2021/03/15 06:58:48;;;;;;;40.08;37.13;;;;;;;;;;5057281;28;20197;-74
2021/03/15 07:01:16;;;;;;;37.83;34.97;;;;;;;;;;5057268;28;20226;-74
2021/03/15 07:03:45;;;;;;;40.03;36.53;;;;;;;;;;5056942;28;20276;-74
2021/03/15 07:06:12;;;;;;;39.83;36.72;;;;;;;;;;5056859;28;20212;-74
2021/03/15 07:08:39;;;;;;;37.70;34.53;;;;;;;;;;5057496;28;20201;-74
2021/03/15 07:11:17;;;;;;;42.40;39.42;;;;;;;;;;5057278;28;20690;-75
2021/03/15 07:13:44;;;;;;;37.40;34.58;;;;;;;;;;5035555;28;20643;-74
2021/03/15 07:16:22;;;;;;;37.13;34.30;;;;;;;;;;5036911;28;20229;-74
2021/03/15 07:18:50;;;;;;;37.50;34.70;;;;;;;;;;5037386;28;20195;-73
2021/03/15 07:21:19;;;;;;;37.15;34.42;;;;;;;;;;5036906;28;20200;-74
2021/03/15 07:23:47;;;;;;;36.25;33.55;;;;;;;;;;5037155;28;20191;-75
2021/03/15 07:26:15;;;;;;;38.55;35.65;;;;;;;;;;5036632;28;20192;-74
2021/03/15 07:28:42;;;;;;;38.10;35.25;;;;;;;;;;5037140;28;20209;-74
2021/03/15 07:31:25;;;;;;;37.55;34.95;;;;;;;;;;5035799;28;20208;-74
2021/03/15 07:34:09;;;;;;;38.30;35.55;;;;;;;;;;5036618;28;20185;-74
2021/03/15 07:36:46;;;;;;;39.67;36.75;;;;;;;;;;5036744;28;20222;-74
2021/03/15 07:39:14;;;;;;;40.65;37.95;;;;;;;;;;5036697;28;20195;-74
2021/03/15 07:41:41;;;;;;;35.55;32.78;;;;;;;;;;5036858;28;20655;-74
2021/03/15 07:44:16;;;;;;;36.17;33.58;;;;;;;;;;5037174;28;20223;-74
2021/03/15 07:46:45;;;;;;;36.85;34.45;;;;;;;;;;5036901;28;20198;-74
2021/03/15 07:49:21;;;;;;;37.30;34.05;;;;;;;;;;5036052;28;20662;-74
2021/03/15 07:51:51;;;;;;;36.80;34.15;;;;;;;;;;5036506;28;20248;-74
2021/03/15 07:54:23;;;;;;;32.58;30.58;;;;;;;;;;5036415;28;20221;-74
2021/03/15 07:57:10;;;;;;;36.25;33.60;;;;;;;;;;5035475;28;20285;-74
2021/03/15 07:59:37;;;;;;;34.05;31.60;;;;;;;;;;5036183;28;20196;-74
2021/03/15 08:02:04;;;;;;;35.08;32.88;;;;;;;;;;5036087;28;20237;-74
2021/03/15 08:04:31;;;;;;;35.45;32.85;;;;;;;;;;5035694;28;20596;-74
2021/03/15 08:07:00;;;;;;;36.00;33.58;;;;;;;;;;5035785;28;20205;-74
2021/03/15 08:09:27;;;;;;;32.08;30.08;;;;;;;;;;5035766;28;20645;-74
2021/03/15 08:11:56;;;;;;;33.70;31.55;;;;;;;;;;5035836;28;20198;-74
2021/03/15 08:14:24;;;;;;;30.13;28.20;;;;;;;;;;5045833;28;20237;-71
2021/03/15 08:16:52;;;;;;;32.67;30.50;;;;;;;;;;5055474;28;20217;-71
2021/03/15 08:19:19;;;;;;;31.77;29.17;;;;;;;;;;5057371;28;20555;-71
2021/03/15 08:21:47;;;;;;;30.52;28.60;;;;;;;;;;5056670;28;20194;-71
2021/03/15 08:24:17;;;;;;;31.67;29.75;;;;;;;;;;5057758;28;20196;-71
2021/03/15 08:26:46;;;;;;;32.13;29.83;;;;;;;;;;5056231;28;20197;-72
2021/03/15 08:29:15;;;;;;;32.00;30.08;;;;;;;;;;5055418;28;20269;-72
2021/03/15 08:31:43;;;;;;;32.13;29.75;;;;;;;;;;5055609;28;20243;-71
2021/03/15 08:34:12;;;;;;;31.15;29.15;;;;;;;;;;5055524;28;20273;-72
2021/03/15 08:36:39;;;;;;;30.55;28.52;;;;;;;;;;5055567;28;20320;-72
2021/03/15 08:39:21;;;;;;;30.08;28.10;;;;;;;;;;5054905;28;20195;-72
2021/03/15 08:41:49;;;;;;;30.10;28.00;;;;;;;;;;5037027;28;20209;-72
2021/03/15 08:44:36;;;;;;;32.30;29.73;;;;;;;;;;5055198;28;20194;-71
2021/03/15 08:47:03;;;;;;;31.30;29.00;;;;;;;;;;5055378;28;20226;-71
2021/03/15 08:49:31;;;;;;;31.40;29.17;;;;;;;;;;5055361;28;20191;-71
2021/03/15 08:51:59;;;;;;;31.50;29.38;;;;;;;;;;5055301;28;20196;-71
2021/03/15 08:54:47;;;;;;;30.63;27.80;;;;;;;;;;5055488;28;20268;-71
2021/03/15 08:57:32;;;;;;;31.63;29.23;;;;;;;;;;5054675;28;20683;-71
2021/03/15 08:59:59;;;;;;;28.38;26.58;;;;;;;;;;5054987;28;20228;-71
2021/03/15 09:02:39;;;;;;;29.15;27.33;;;;;;;;;;5054264;28;20576;-71
2021/03/15 09:05:22;;;;;;;27.58;25.55;;;;;;;;;;5055017;28;20197;-71
2021/03/15 09:07:49;;;;;;;31.20;28.52;;;;;;;;;;5054273;28;20194;-72
2021/03/15 09:10:43;;;;;;;27.90;25.50;;;;;;;;;;5054676;28;20194;-72
2021/03/15 09:13:20;;;;;;;28.10;25.23;;;;;;;;;;5055723;28;20202;-74
2021/03/15 09:15:52;;;;;;;25.67;23.88;;;;;;;;;;5052909;28;20690;-74
2021/03/15 09:18:36;;;;;;;27.33;24.92;;;;;;;;;;5055511;28;20198;-75
2021/03/15 09:21:03;;;;;;;27.27;24.73;;;;;;;;;;5040941;28;20206;-74
2021/03/15 09:23:32;;;;;;;27.23;25.05;;;;;;;;;;5055746;28;20202;-74
2021/03/15 09:26:13;;;;;;;23.02;21.38;;;;;;;;;;5055465;28;20267;-78
2021/03/15 09:28:41;;;;;;;22.80;21.10;;;;;;;;;;5055945;28;20202;-76
2021/03/15 09:31:09;;;;;;;23.20;21.27;;;;;;;;;;5057884;28;20194;-85
2021/03/15 09:33:38;;;;;;;22.45;21.15;;;;;;;;;;5058315;28;20594;-84
2021/03/15 09:36:05;;;;;;;22.33;20.83;;;;;;;;;;5056091;28;20252;-79
2021/03/15 09:38:32;;;;;;;22.23;20.60;;;;;;;;;;5055995;28;20260;-75
2021/03/15 09:40:59;;;;;;;23.48;21.85;;;;;;;;;;5054426;28;20200;-75
2021/03/15 09:43:27;;;;;;;22.77;20.98;;;;;;;;;;5035875;28;20603;-74
2021/03/15 09:45:56;;;;;;;22.10;20.50;;;;;;;;;;5054356;28;20248;-75
2021/03/15 09:48:24;;;;;;;23.20;21.00;;;;;;;;;;5055183;28;20196;-75
2021/03/15 09:50:51;;;;;;;22.48;20.80;;;;;;;;;;5054753;28;20195;-75
2021/03/15 09:53:20;;;;;;;26.85;21.33;;;;;;;;;;5055051;28;20268;-74
2021/03/15 09:55:47;;;;;;;22.75;20.70;;;;;;;;;;5054712;28;20632;-75
2021/03/15 09:58:16;;;;;;;23.08;21.33;;;;;;;;;;5038294;28;20238;-74
2021/03/15 10:00:45;;;;;;;21.10;19.70;;;;;;;;;;5037391;28;20211;-75
2021/03/15 10:03:21;;;;;;;22.20;20.80;;;;;;;;;;5054296;28;20197;-75
2021/03/15 10:05:48;;;;;;;21.95;20.52;;;;;;;;;;5054276;28;20286;-75
2021/03/15 10:08:15;;;;;;;23.67;21.92;;;;;;;;;;5053854;28;20195;-75
2021/03/15 10:10:42;;;;;;;23.65;21.25;;;;;;;;;;5054131;28;20188;-75
2021/03/15 10:13:09;;;;;;;23.40;21.55;;;;;;;;;;5036457;28;20214;-75
2021/03/15 10:15:36;;;;;;;21.83;20.63;;;;;;;;;;5053880;28;20628;-75
2021/03/15 10:18:04;;;;;;;22.98;21.27;;;;;;;;;;5053096;28;20253;-75
2021/03/15 10:20:32;;;;;;;21.30;20.08;;;;;;;;;;5053552;28;20194;-74
2021/03/15 10:23:09;;;;;;;23.35;21.20;;;;;;;;;;5053768;28;20242;-75
2021/03/15 10:25:36;;;;;;;22.52;20.88;;;;;;;;;;5053785;28;20200;-75
2021/03/15 10:28:03;;;;;;;21.75;20.10;;;;;;;;;;5054319;28;20605;-75
2021/03/15 10:30:31;;;;;;;24.00;21.65;;;;;;;;;;5036149;28;20260;-75
2021/03/15 10:32:58;;;;;;;21.88;20.15;;;;;;;;;;5053664;28;20545;-75
2021/03/15 10:35:26;;;;;;;22.02;20.30;;;;;;;;;;5053801;28;20241;-75
2021/03/15 10:37:54;;;;;;;23.30;21.30;;;;;;;;;;5052900;28;20281;-75
2021/03/15 10:40:23;;;;;;;25.13;23.00;;;;;;;;;;5053972;28;20622;-75
2021/03/15 10:42:50;;;;;;;24.75;22.55;;;;;;;;;;5041738;28;20287;-76
2021/03/15 10:45:22;;;;;;;23.85;22.08;;;;;;;;;;5055760;28;20201;-73
2021/03/15 10:48:05;;;;;;;24.92;23.10;;;;;;;;;;5056998;28;20201;-74
2021/03/15 10:50:33;;;;;;;23.50;21.83;;;;;;;;;;5055894;28;20193;-75
2021/03/15 10:53:12;;;;;;;22.25;20.48;;;;;;;;;;5055839;28;20213;-74
2021/03/15 10:55:39;;;;;;;22.17;20.38;;;;;;;;;;5055602;28;20181;-74
2021/03/15 10:58:08;;;;;;;21.23;19.98;;;;;;;;;;5055209;28;20239;-74
2021/03/15 11:00:35;;;;;;;22.85;21.08;;;;;;;;;;5054897;28;20242;-79
2021/03/15 11:03:03;;;;;;;23.08;21.30;;;;;;;;;;5055737;28;20199;-74
2021/03/15 11:05:31;;;;;;;21.77;20.00;;;;;;;;;;5054742;28;20190;-75
2021/03/15 11:08:03;;;;;;;22.25;20.60;;;;;;;;;;5054613;28;20221;-75
2021/03/15 11:10:31;;;;;;;21.45;20.05;;;;;;;;;;5056770;28;20197;-77
2021/03/15 11:12:59;;;;;;;21.42;20.02;;;;;;;;;;5052011;28;20264;-74
2021/03/15 11:15:36;;;;;;;23.08;20.70;;;;;;;;;;5053715;28;20229;-75
2021/03/15 11:18:05;;;;;;;21.55;19.65;;;;;;;;;;5054210;28;20717;-74
2021/03/15 11:20:49;;;;;;;20.15;18.58;;;;;;;;;;5035925;28;20253;-74
2021/03/15 11:23:28;;;;;;;22.05;20.20;;;;;;;;;;5054952;28;20200;-75
2021/03/15 11:26:03;;;;;;;21.45;19.90;;;;;;;;;;5055104;28;20195;-74
2021/03/15 11:28:33;;;;;;;20.40;19.15;;;;;;;;;;5054695;28;20211;-75
2021/03/15 11:31:00;;;;;;;21.95;20.05;;;;;;;;;;5056854;28;20195;-75
2021/03/15 11:33:28;;;;;;;20.65;19.35;;;;;;;;;;5057885;28;20597;-74
2021/03/15 11:35:55;;;;;;;22.25;20.33;;;;;;;;;;5040506;28;21139;-74
2021/03/15 11:38:26;;;;;;;20.50;18.90;;;;;;;;;;5055977;28;20618;-74
2021/03/15 11:40:53;;;;;;;20.60;18.95;;;;;;;;;;5058050;28;20201;-75
2021/03/15 11:43:21;;;;;;;20.33;19.10;;;;;;;;;;5059079;28;20198;-75
2021/03/15 11:45:48;;;;;;;21.67;20.25;;;;;;;;;;5059232;28;20649;-78
2021/03/15 11:48:15;;;;;;;19.42;18.33;;;;;;;;;;5059866;28;20276;-73
2021/03/15 11:50:43;;;;;;;21.27;19.52;;;;;;;;;;5057085;28;20247;-73
2021/03/15 11:53:12;;;;;;;21.00;19.70;;;;;;;;;;5057311;28;20210;-72
2021/03/15 11:55:39;;;;;;;21.75;20.17;;;;;;;;;;5057571;28;20297;-72
2021/03/15 11:58:07;;;;;;;22.33;20.48;;;;;;;;;;5058775;28;20572;-72
2021/03/15 12:00:35;;;;;;;20.48;18.80;;;;;;;;;;5058290;28;20205;-72
2021/03/15 12:03:02;;;;;;;20.67;19.17;;;;;;;;;;5057331;28;20627;-73
2021/03/15 12:05:29;;;;;;;19.92;18.83;;;;;;;;;;5057832;28;20580;-72
2021/03/15 12:07:56;;;;;;;20.52;18.95;;;;;;;;;;5056323;28;20193;-72
2021/03/15 12:10:25;;;;;;;20.70;19.20;;;;;;;;;;5039029;28;20214;-73
2021/03/15 12:12:52;;;;;;;19.42;18.33;;;;;;;;;;5056377;28;20207;-73
2021/03/15 12:15:19;;;;;;;18.85;17.85;;;;;;;;;;5055438;28;20288;-74
2021/03/15 12:17:47;;;;;;;19.85;18.70;;;;;;;;;;5055785;28;20216;-73
2021/03/15 12:20:14;;;;;;;20.35;19.10;;;;;;;;;;5055587;28;20591;-72
2021/03/15 12:22:41;;;;;;;21.02;19.05;;;;;;;;;;5055748;28;20197;-73
2021/03/15 12:25:08;;;;;;;19.88;18.50;;;;;;;;;;5055629;28;20274;-73
2021/03/15 12:27:35;;;;;;;20.90;19.60;;;;;;;;;;5055117;28;20204;-73
2021/03/15 12:30:03;;;;;;;20.30;19.13;;;;;;;;;;5055653;28;20430;-73
2021/03/15 12:32:29;;;;;;;20.63;19.10;;;;;;;;;;5055580;28;20439;-74
2021/03/15 12:34:57;;;;;;;19.93;18.60;;;;;;;;;;5055267;28;20444;-74
2021/03/15 12:37:24;;;;;;;19.63;18.47;;;;;;;;;;5055155;28;20467;-73
2021/03/15 12:39:51;;;;;;;20.58;19.00;;;;;;;;;;5055192;28;20442;-73
2021/03/15 12:42:19;;;;;;;20.37;19.17;;;;;;;;;;5053974;28;20198;-73
2021/03/15 12:44:47;;;;;;;20.47;19.30;;;;;;;;;;5037219;28;20449;-74
2021/03/15 12:47:14;;;;;;;20.17;19.07;;;;;;;;;;5037232;28;20424;-74
2021/03/15 12:49:42;;;;;;;21.23;19.93;;;;;;;;;;5055158;28;20412;-74
2021/03/15 12:52:10;;;;;;;20.25;19.08;;;;;;;;;;5055009;28;20442;-73
2021/03/15 12:54:36;;;;;;;23.17;21.60;;;;;;;;;;5055183;28;20621;-73
2021/03/15 12:57:04;;;;;;;21.38;20.10;;;;;;;;;;5054774;28;20884;-73
2021/03/15 12:59:30;;;;;;;21.43;19.93;;;;;;;;;;5054586;28;20200;-73
2021/03/15 13:01:57;;;;;;;20.13;18.83;;;;;;;;;;5054725;28;20947;-74
2021/03/15 13:04:25;;;;;;;21.13;19.83;;;;;;;;;;5055167;28;20417;-73
2021/03/15 13:06:52;;;;;;;27.40;25.33;;;;;;;;;;5055406;28;20665;-74
2021/03/15 13:09:20;;;;;;;29.77;28.05;;;;;;;;;;5055209;28;20447;-73
2021/03/15 13:11:47;;;;;;;28.48;26.67;;;;;;;;;;5054741;28;20196;-74
2021/03/15 13:14:14;;;;;;;26.55;24.65;;;;;;;;;;5053596;28;20225;-73
2021/03/15 13:16:42;;;;;;;25.55;23.90;;;;;;;;;;5036740;28;20216;-73
2021/03/15 13:19:09;;;;;;;27.27;25.40;;;;;;;;;;5054113;28;20190;-73
2021/03/15 13:21:36;;;;;;;27.13;25.13;;;;;;;;;;5053889;28;20523;-73
2021/03/15 13:24:03;;;;;;;27.13;24.80;;;;;;;;;;5054085;28;20193;-74
2021/03/15 13:26:30;;;;;;;27.70;25.67;;;;;;;;;;5053348;28;20202;-75
2021/03/15 13:28:58;;;;;;;26.67;24.73;;;;;;;;;;5054538;28;20725;-75
2021/03/15 13:31:24;;;;;;;25.35;23.73;;;;;;;;;;5037427;28;20203;-74
2021/03/15 13:33:52;;;;;;;24.85;23.20;;;;;;;;;;5054804;28;20202;-74
2021/03/15 13:36:19;;;;;;;21.98;20.77;;;;;;;;;;5054728;28;20685;-74
2021/03/15 13:38:50;;;;;;;25.70;24.30;;;;;;;;;;5054167;28;20289;-74
2021/03/15 13:41:19;;;;;;;24.17;22.25;;;;;;;;;;5054181;28;20190;-75
2021/03/15 13:43:46;;;;;;;22.35;21.10;;;;;;;;;;5054745;28;20245;-74
2021/03/15 13:46:13;;;;;;;22.98;21.58;;;;;;;;;;5054779;28;20194;-74
2021/03/15 13:48:47;;;;;;;21.15;19.85;;;;;;;;;;5054201;28;20189;-75
2021/03/15 13:51:16;;;;;;;21.02;19.83;;;;;;;;;;5054251;28;20194;-74
2021/03/15 13:53:43;;;;;;;22.13;20.50;;;;;;;;;;5053757;28;20226;-75
2021/03/15 13:56:10;;;;;;;21.40;19.77;;;;;;;;;;5054048;28;20229;-74
2021/03/15 13:58:37;;;;;;;20.83;19.40;;;;;;;;;;5036968;28;20214;-74
2021/03/15 14:01:04;;;;;;;23.67;21.98;;;;;;;;;;5054477;28;20202;-74
2021/03/15 14:03:32;;;;;;;21.85;20.00;;;;;;;;;;5053770;28;20265;-75
2021/03/15 14:05:59;;;;;;;22.08;19.88;;;;;;;;;;5054194;28;20191;-75
2021/03/15 14:08:27;;;;;;;20.23;18.42;;;;;;;;;;5053701;28;20242;-74
2021/03/15 14:10:54;;;;;;;21.27;19.25;;;;;;;;;;5053738;28;20192;-75
2021/03/15 14:13:21;;;;;;;20.90;19.25;;;;;;;;;;5052786;28;20197;-75
2021/03/15 14:15:48;;;;;;;20.77;19.17;;;;;;;;;;5054248;28;20184;-74
2021/03/15 14:18:21;;;;;;;21.23;19.63;;;;;;;;;;5053587;28;20212;-75
2021/03/15 14:20:52;;;;;;;20.30;18.95;;;;;;;;;;5054028;28;20188;-75
2021/03/15 14:23:19;;;;;;;21.50;20.10;;;;;;;;;;5054310;28;20195;-75
2021/03/15 14:25:46;;;;;;;20.40;19.20;;;;;;;;;;5055165;28;20191;-75
2021/03/15 14:28:13;;;;;;;20.60;19.20;;;;;;;;;;5054011;28;20509;-74
2021/03/15 14:30:40;;;;;;;21.08;19.55;;;;;;;;;;5053544;28;20255;-74
2021/03/15 14:33:07;;;;;;;22.33;20.00;;;;;;;;;;5052440;28;20245;-75